Time;durP1;ratioP1;P1;durP2;ratioP2;P2;SDS_P1;SDS_P2;PMS_P1;PMS_P2;Temp;Humidity;BMP_temperature;BMP_pressure;BME280_temperature;BME280_humidity;BME280_pressure;Samples;Min_cycle;Max_cycle;Signal;HPM_P1;HPM_P2
2023/12/27 00:00:48;;;;;;;23.23;4.10;;;5.00;99.90;;;;;;5056140;28;20252;-81
2023/12/27 00:03:14;;;;;;;34.43;5.47;;;5.00;99.90;;;;;;5038817;28;20824;-81
2023/12/27 00:05:40;;;;;;;29.50;4.97;;;5.00;99.90;;;;;;5056273;28;20291;-81
2023/12/27 00:08:06;;;;;;;24.07;4.10;;;5.00;99.90;;;;;;5038554;28;20177;-81
2023/12/27 00:10:31;;;;;;;23.92;4.00;;;4.90;99.90;;;;;;5056394;28;20454;-81
2023/12/27 00:12:57;;;;;;;31.33;4.57;;;4.90;99.90;;;;;;5057000;28;20173;-81
2023/12/27 00:15:23;;;;;;;22.40;4.50;;;4.80;99.90;;;;;;5056551;28;20188;-82
2023/12/27 00:17:49;;;;;;;25.27;3.83;;;4.80;99.90;;;;;;5056693;28;20176;-81
2023/12/27 00:20:14;;;;;;;22.90;4.37;;;4.70;99.90;;;;;;5038249;28;20161;-81
2023/12/27 00:22:40;;;;;;;21.90;4.10;;;4.70;99.90;;;;;;5056104;28;20816;-81
2023/12/27 00:25:06;;;;;;;27.42;3.58;;;4.60;99.90;;;;;;5041964;28;20185;-81
2023/12/27 00:27:32;;;;;;;25.37;3.77;;;4.60;99.90;;;;;;5060089;28;20157;-81
2023/12/27 00:29:57;;;;;;;27.47;4.57;;;4.60;99.90;;;;;;5060071;28;20407;-81
2023/12/27 00:32:27;;;;;;;25.30;4.30;;;4.60;99.90;;;;;;5042065;28;20173;-81
2023/12/27 00:34:52;;;;;;;27.25;5.45;;;4.60;99.90;;;;;;5042596;28;20219;-81
2023/12/27 00:37:18;;;;;;;27.57;4.23;;;4.60;99.90;;;;;;5060006;28;20203;-81
2023/12/27 00:39:46;;;;;;;27.43;4.27;;;4.60;99.90;;;;;;5041704;28;20227;-81
2023/12/27 00:42:12;;;;;;;26.63;5.53;;;4.60;99.90;;;;;;5059698;28;20268;-81
2023/12/27 00:44:37;;;;;;;21.83;3.50;;;4.50;99.90;;;;;;5059146;28;20182;-80
2023/12/27 00:47:03;;;;;;;28.30;3.90;;;4.50;99.90;;;;;;5041329;28;20165;-80
2023/12/27 00:49:29;;;;;;;28.30;3.97;;;4.60;99.90;;;;;;5041765;28;20166;-80
2023/12/27 00:51:55;;;;;;;21.77;3.00;;;4.60;99.90;;;;;;5060263;28;20463;-81
2023/12/27 00:54:22;;;;;;;26.93;3.83;;;4.70;99.90;;;;;;5059351;28;20185;-81
2023/12/27 00:56:48;;;;;;;22.48;3.20;;;4.70;99.90;;;;;;5059133;28;20399;-81
2023/12/27 00:59:14;;;;;;;31.60;4.88;;;4.80;99.90;;;;;;5059652;28;20226;-81
2023/12/27 01:01:40;;;;;;;25.87;3.47;;;4.80;99.90;;;;;;5059472;28;20200;-81
2023/12/27 01:04:05;;;;;;;28.70;3.20;;;4.70;99.90;;;;;;5041592;28;20199;-81
2023/12/27 01:06:31;;;;;;;24.40;3.13;;;4.80;99.90;;;;;;5041692;28;20642;-81
2023/12/27 01:08:57;;;;;;;27.60;3.37;;;4.80;99.90;;;;;;5041357;28;20650;-81
2023/12/27 01:11:22;;;;;;;22.70;3.13;;;4.80;99.90;;;;;;5059048;28;20224;-81
2023/12/27 01:13:48;;;;;;;28.93;3.67;;;4.80;99.90;;;;;;5059226;28;20188;-81
2023/12/27 01:16:15;;;;;;;27.70;3.27;;;4.80;99.90;;;;;;5058803;28;20674;-81
2023/12/27 01:18:40;;;;;;;27.90;3.92;;;4.80;99.90;;;;;;5058739;28;20960;-81
2023/12/27 01:21:06;;;;;;;29.53;3.47;;;4.80;99.90;;;;;;5058585;28;20217;-81
2023/12/27 01:23:32;;;;;;;23.70;3.67;;;4.90;99.90;;;;;;5059032;28;20165;-81
2023/12/27 01:25:58;;;;;;;26.70;4.15;;;4.90;99.90;;;;;;5059047;28;20181;-81
2023/12/27 01:28:24;;;;;;;25.20;3.23;;;4.90;99.90;;;;;;5058875;28;20253;-81
2023/12/27 01:30:50;;;;;;;21.70;3.47;;;4.90;99.90;;;;;;5058245;28;20174;-81
2023/12/27 01:33:15;;;;;;;24.80;4.07;;;4.90;99.90;;;;;;5059179;28;20165;-81
2023/12/27 01:35:41;;;;;;;28.90;4.27;;;5.00;99.90;;;;;;5058241;28;20424;-81
2023/12/27 01:38:10;;;;;;;29.50;3.97;;;5.00;99.90;;;;;;5058499;28;20713;-81
2023/12/27 01:40:35;;;;;;;26.73;3.95;;;5.10;99.90;;;;;;5058408;28;20173;-81
2023/12/27 01:43:01;;;;;;;25.33;3.40;;;5.10;99.90;;;;;;5057937;28;20165;-81
2023/12/27 01:45:27;;;;;;;25.77;3.60;;;5.10;99.90;;;;;;5058135;28;20219;-81
2023/12/27 01:47:52;;;;;;;26.63;4.30;;;5.10;99.90;;;;;;5039940;28;20176;-81
2023/12/27 01:50:19;;;;;;;25.63;4.53;;;5.10;99.90;;;;;;5058679;28;20193;-81
2023/12/27 01:52:45;;;;;;;24.52;3.90;;;5.10;99.90;;;;;;5060916;28;20177;-81
2023/12/27 01:55:11;;;;;;;26.73;4.07;;;5.10;99.90;;;;;;5059031;28;20273;-81
2023/12/27 01:57:38;;;;;;;27.10;4.90;;;5.10;99.90;;;;;;5040490;28;20205;-81
2023/12/27 02:00:06;;;;;;;26.05;3.75;;;5.10;99.90;;;;;;5058773;28;20154;-81
2023/12/27 02:02:32;;;;;;;32.65;3.92;;;5.10;99.90;;;;;;5058127;28;20165;-82
2023/12/27 02:04:57;;;;;;;26.83;4.50;;;5.10;99.90;;;;;;5040623;28;20237;-82
2023/12/27 02:07:23;;;;;;;26.20;3.77;;;5.10;99.90;;;;;;5039923;28;20423;-82
2023/12/27 02:09:50;;;;;;;27.17;4.27;;;5.10;99.90;;;;;;5058413;28;20177;-81
2023/12/27 02:12:26;;;;;;;32.90;4.53;;;5.10;99.90;;;;;;5058430;28;20189;-82
2023/12/27 02:14:52;;;;;;;22.70;3.42;;;5.00;99.90;;;;;;5040393;28;20193;-81
2023/12/27 02:17:19;;;;;;;24.67;3.83;;;5.10;99.90;;;;;;5040755;28;20206;-81
2023/12/27 02:19:45;;;;;;;26.00;3.20;;;5.00;99.90;;;;;;5057871;28;20188;-82
2023/12/27 02:22:15;;;;;;;24.20;3.70;;;5.00;99.90;;;;;;5040910;28;20165;-81
2023/12/27 02:24:41;;;;;;;27.85;4.25;;;4.90;99.90;;;;;;5058325;28;20257;-81
2023/12/27 02:27:07;;;;;;;25.30;4.15;;;4.90;99.90;;;;;;5040159;28;20552;-81
2023/12/27 02:29:34;;;;;;;35.57;4.17;;;4.90;99.90;;;;;;5039729;28;20199;-81
2023/12/27 02:32:00;;;;;;;26.48;3.92;;;4.90;99.90;;;;;;5039598;28;20411;-82
2023/12/27 02:34:26;;;;;;;28.57;3.73;;;4.90;99.90;;;;;;5058045;28;20553;-81
2023/12/27 02:36:51;;;;;;;25.60;4.07;;;4.90;99.90;;;;;;5039742;28;20210;-81
2023/12/27 02:39:17;;;;;;;21.73;3.20;;;4.90;99.90;;;;;;5039412;28;20788;-81
2023/12/27 02:41:43;;;;;;;24.20;3.70;;;4.90;99.90;;;;;;5057676;28;20240;-81
2023/12/27 02:44:08;;;;;;;27.67;4.00;;;5.00;99.90;;;;;;5057268;28;20169;-81
2023/12/27 02:46:34;;;;;;;25.83;3.60;;;5.00;99.90;;;;;;5056353;28;20166;-81
2023/12/27 02:49:00;;;;;;;30.20;4.83;;;5.00;99.90;;;;;;5057768;28;20228;-81
2023/12/27 02:51:28;;;;;;;24.37;3.13;;;5.00;99.90;;;;;;5039309;28;20181;-81
2023/12/27 02:53:54;;;;;;;25.05;4.65;;;5.00;99.90;;;;;;5057133;28;20450;-82
2023/12/27 02:56:21;;;;;;;27.23;4.20;;;5.00;99.90;;;;;;5057107;28;20554;-81
2023/12/27 02:58:46;;;;;;;26.02;4.40;;;5.00;99.90;;;;;;5056670;28;20193;-81
2023/12/27 03:01:12;;;;;;;24.07;4.40;;;5.00;99.90;;;;;;5056805;28;20225;-82
2023/12/27 03:03:38;;;;;;;24.83;3.90;;;5.10;99.90;;;;;;5039366;28;20173;-81
2023/12/27 03:06:05;;;;;;;37.73;4.17;;;5.00;99.90;;;;;;5039469;28;20463;-81
2023/12/27 03:08:31;;;;;;;27.48;4.28;;;5.00;99.90;;;;;;5039167;28;20244;-81
2023/12/27 03:10:56;;;;;;;27.93;4.63;;;5.00;99.90;;;;;;5056715;28;20172;-81
2023/12/27 03:13:22;;;;;;;28.97;4.07;;;5.10;99.90;;;;;;5038716;28;20198;-81
2023/12/27 03:15:48;;;;;;;25.90;4.07;;;5.00;99.90;;;;;;5056646;28;20189;-81
2023/12/27 03:18:14;;;;;;;27.10;5.27;;;5.00;99.90;;;;;;5056483;28;20670;-81
2023/12/27 03:20:47;;;;;;;28.15;4.03;;;5.00;99.90;;;;;;5039357;28;20165;-81
2023/12/27 03:23:13;;;;;;;24.92;4.40;;;5.00;99.90;;;;;;5057150;28;20629;-81
2023/12/27 03:25:39;;;;;;;34.97;4.72;;;5.00;99.90;;;;;;5038292;28;20662;-81
2023/12/27 03:28:04;;;;;;;26.60;5.17;;;5.00;99.90;;;;;;5057191;28;20176;-81
2023/12/27 03:30:30;;;;;;;36.90;3.93;;;5.00;99.90;;;;;;5056868;28;20165;-81
2023/12/27 03:32:56;;;;;;;29.30;4.57;;;5.00;99.90;;;;;;5038696;28;20169;-82
2023/12/27 03:35:21;;;;;;;27.97;4.73;;;5.00;99.90;;;;;;5056918;28;20199;-81
2023/12/27 03:37:47;;;;;;;23.70;4.07;;;5.00;99.90;;;;;;5056761;28;20172;-81
2023/12/27 03:40:13;;;;;;;28.97;4.67;;;5.00;99.90;;;;;;5056560;28;20169;-81
2023/12/27 03:42:38;;;;;;;24.07;4.10;;;5.00;99.90;;;;;;5057134;28;20240;-81
2023/12/27 03:45:07;;;;;;;24.60;3.90;;;5.00;99.90;;;;;;5056260;28;20193;-81
2023/12/27 03:47:33;;;;;;;25.60;4.35;;;4.90;99.90;;;;;;5038888;28;20161;-81
2023/12/27 03:50:01;;;;;;;23.43;3.17;;;5.00;99.90;;;;;;5056885;28;20255;-81
2023/12/27 03:52:27;;;;;;;25.25;3.22;;;5.00;99.90;;;;;;5039192;28;20502;-81
2023/12/27 03:54:53;;;;;;;29.30;4.23;;;5.00;99.90;;;;;;5059240;28;20185;-81
2023/12/27 03:57:21;;;;;;;27.60;3.97;;;5.00;99.90;;;;;;5057632;28;20165;-81
2023/12/27 03:59:46;;;;;;;28.88;4.40;;;5.10;99.90;;;;;;5060634;28;20195;-81
2023/12/27 04:02:12;;;;;;;23.73;4.27;;;5.10;99.90;;;;;;5060466;28;20173;-81
2023/12/27 04:04:40;;;;;;;25.73;3.90;;;5.00;99.90;;;;;;5060816;28;20554;-81
2023/12/27 04:07:06;;;;;;;27.98;4.15;;;5.10;99.90;;;;;;5060676;28;20165;-81
2023/12/27 04:09:38;;;;;;;23.03;3.67;;;5.10;99.90;;;;;;5060840;28;20523;-81
2023/12/27 04:12:04;;;;;;;23.33;3.47;;;5.10;99.90;;;;;;5061038;28;20215;-82
2023/12/27 04:14:33;;;;;;;28.13;3.57;;;5.10;99.90;;;;;;5060391;28;20185;-81
2023/12/27 04:16:58;;;;;;;28.10;3.90;;;5.10;99.90;;;;;;5060360;28;20431;-81
2023/12/27 04:19:24;;;;;;;25.53;4.00;;;5.20;99.90;;;;;;5060922;28;20570;-81
2023/12/27 04:21:50;;;;;;;24.80;3.70;;;5.20;99.90;;;;;;5060378;28;20215;-81
2023/12/27 04:24:15;;;;;;;26.70;4.27;;;5.20;99.90;;;;;;5060512;28;20268;-81
2023/12/27 04:26:41;;;;;;;24.50;4.17;;;5.20;99.90;;;;;;5060303;28;20168;-81
2023/12/27 04:29:08;;;;;;;24.92;4.38;;;5.20;99.90;;;;;;5060041;28;20168;-81
2023/12/27 04:31:35;;;;;;;22.00;3.20;;;5.30;99.90;;;;;;5041807;28;20640;-81
2023/12/27 04:34:01;;;;;;;28.90;4.57;;;5.30;99.90;;;;;;5059172;28;20173;-81
2023/12/27 04:36:27;;;;;;;29.70;4.53;;;5.40;99.90;;;;;;5059970;28;20169;-81
2023/12/27 04:38:52;;;;;;;21.77;3.80;;;5.30;99.90;;;;;;5060285;28;20197;-81
2023/12/27 04:41:18;;;;;;;25.00;3.90;;;5.40;99.90;;;;;;5059864;28;20165;-82
2023/12/27 04:43:43;;;;;;;23.80;3.60;;;5.30;99.90;;;;;;5059485;28;20168;-81
2023/12/27 04:46:10;;;;;;;34.60;4.63;;;5.30;99.90;;;;;;5059338;28;20206;-82
2023/12/27 04:48:36;;;;;;;27.52;4.93;;;5.40;99.90;;;;;;5059629;28;20248;-81
2023/12/27 04:51:01;;;;;;;25.23;3.83;;;5.40;99.90;;;;;;5059533;28;20610;-81
2023/12/27 04:53:27;;;;;;;26.63;4.30;;;5.40;99.90;;;;;;5042192;28;20165;-81
2023/12/27 04:55:53;;;;;;;27.33;3.40;;;5.40;99.90;;;;;;5059253;28;20189;-81
2023/12/27 04:58:18;;;;;;;29.07;4.53;;;5.40;99.90;;;;;;5059225;28;20228;-81
2023/12/27 05:00:44;;;;;;;26.93;4.10;;;5.50;99.90;;;;;;5059231;28;20670;-81
2023/12/27 05:03:10;;;;;;;40.50;4.47;;;5.50;99.90;;;;;;5059589;28;20165;-81
2023/12/27 05:05:35;;;;;;;27.17;3.70;;;5.60;99.90;;;;;;5058854;28;20260;-82
2023/12/27 05:08:01;;;;;;;26.87;3.87;;;5.60;99.90;;;;;;5059528;28;20165;-82
2023/12/27 05:10:27;;;;;;;24.57;3.40;;;5.60;99.90;;;;;;5040924;28;20223;-81
2023/12/27 05:12:55;;;;;;;25.77;4.20;;;5.60;99.90;;;;;;5059269;28;20639;-81
2023/12/27 05:15:21;;;;;;;21.55;2.95;;;5.60;99.90;;;;;;5041397;28;20200;-81
2023/12/27 05:17:46;;;;;;;28.10;3.77;;;5.60;99.90;;;;;;5059481;28;20161;-81
2023/12/27 05:20:13;;;;;;;23.53;4.00;;;5.60;99.90;;;;;;5059579;28;20227;-81
2023/12/27 05:22:40;;;;;;;27.27;4.10;;;5.60;99.90;;;;;;5041059;28;20173;-81
2023/12/27 05:25:09;;;;;;;26.50;3.95;;;5.60;99.90;;;;;;5041998;28;20186;-81
2023/12/27 05:27:34;;;;;;;24.20;3.25;;;5.80;99.90;;;;;;5060013;28;20161;-81
2023/12/27 05:30:01;;;;;;;36.30;4.60;;;5.80;99.90;;;;;;5059156;28;20251;-82
2023/12/27 05:32:27;;;;;;;21.50;3.05;;;5.80;99.90;;;;;;5041118;28;20188;-81
2023/12/27 05:34:53;;;;;;;24.23;3.40;;;5.80;99.90;;;;;;5059033;28;20208;-82
2023/12/27 05:37:19;;;;;;;24.55;3.92;;;5.80;99.90;;;;;;5058869;28;20227;-81
2023/12/27 05:39:45;;;;;;;24.05;3.90;;;5.80;99.90;;;;;;5058713;28;20193;-82
2023/12/27 05:42:13;;;;;;;26.43;3.63;;;5.80;99.90;;;;;;5041393;28;20168;-81
2023/12/27 05:44:39;;;;;;;30.52;6.30;;;5.80;99.90;;;;;;5058735;28;20450;-82
2023/12/27 05:47:08;;;;;;;24.90;4.60;;;5.80;99.90;;;;;;5058801;28;20158;-82
2023/12/27 05:49:34;;;;;;;22.08;2.80;;;5.90;99.90;;;;;;5040682;28;20196;-81
2023/12/27 05:51:59;;;;;;;31.30;4.23;;;5.90;99.90;;;;;;5058357;28;20176;-81
2023/12/27 05:54:26;;;;;;;24.83;4.03;;;5.80;99.90;;;;;;5040436;28;20485;-81
2023/12/27 05:56:53;;;;;;;28.90;3.75;;;5.90;99.90;;;;;;5058671;28;20404;-81
2023/12/27 05:59:19;;;;;;;26.50;4.47;;;5.90;99.90;;;;;;5040515;28;20258;-82
2023/12/27 06:01:49;;;;;;;30.38;4.32;;;5.90;99.90;;;;;;5058436;28;20195;-82
2023/12/27 06:04:15;;;;;;;22.80;3.55;;;5.90;99.90;;;;;;5058326;28;20181;-81
2023/12/27 06:06:40;;;;;;;26.27;4.22;;;6.00;99.90;;;;;;5058041;28;20206;-81
2023/12/27 06:09:06;;;;;;;23.80;4.07;;;5.90;99.90;;;;;;5058352;28;20173;-81
2023/12/27 06:11:32;;;;;;;23.50;4.27;;;6.00;99.90;;;;;;5058330;28;20165;-81
2023/12/27 06:13:58;;;;;;;25.33;3.80;;;6.00;99.90;;;;;;5040040;28;20291;-81
2023/12/27 06:16:24;;;;;;;26.45;4.05;;;6.00;99.90;;;;;;5057783;28;20165;-81
2023/12/27 06:18:54;;;;;;;24.27;3.93;;;6.00;99.90;;;;;;5057504;28;20196;-81
2023/12/27 06:21:20;;;;;;;23.80;3.53;;;6.00;99.90;;;;;;5057453;28;20541;-81
2023/12/27 06:23:47;;;;;;;23.00;3.97;;;6.10;99.90;;;;;;5039565;28;20219;-81
2023/12/27 06:26:12;;;;;;;30.02;5.25;;;6.10;99.90;;;;;;5039156;28;20436;-81
2023/12/27 06:28:38;;;;;;;24.67;3.77;;;6.10;99.90;;;;;;5057301;28;20172;-81
2023/12/27 06:31:04;;;;;;;27.90;3.80;;;6.10;99.90;;;;;;5039108;28;20165;-81
2023/12/27 06:33:30;;;;;;;25.17;3.67;;;6.10;99.90;;;;;;5057378;28;20193;-80
2023/12/27 06:35:56;;;;;;;25.95;4.38;;;6.30;99.90;;;;;;5038948;28;20227;-80
2023/12/27 06:38:21;;;;;;;27.87;4.83;;;6.30;99.90;;;;;;5056843;28;20535;-81
2023/12/27 06:40:47;;;;;;;23.07;4.70;;;6.30;99.90;;;;;;5039274;28;20192;-81
2023/12/27 06:43:13;;;;;;;23.40;4.00;;;6.30;99.90;;;;;;5058462;28;20661;-81
2023/12/27 06:45:38;;;;;;;23.30;4.00;;;6.30;99.90;;;;;;5057854;28;20235;-81
2023/12/27 06:48:07;;;;;;;28.80;4.60;;;6.40;99.90;;;;;;5039492;28;20173;-81
2023/12/27 06:50:33;;;;;;;26.70;4.60;;;6.40;99.90;;;;;;5058118;28;20169;-81
2023/12/27 06:52:58;;;;;;;33.23;5.07;;;6.40;99.90;;;;;;5056996;28;20228;-81
2023/12/27 06:55:24;;;;;;;32.87;4.43;;;6.40;99.90;;;;;;5039796;28;20189;-81
2023/12/27 06:57:50;;;;;;;29.13;4.57;;;6.40;99.90;;;;;;5041347;28;20168;-81
2023/12/27 07:00:16;;;;;;;24.47;3.93;;;6.50;99.90;;;;;;5039982;28;20165;-81
2023/12/27 07:02:41;;;;;;;27.97;5.27;;;6.50;99.90;;;;;;5057420;28;20631;-81
2023/12/27 07:05:11;;;;;;;25.30;4.07;;;6.50;99.90;;;;;;5057161;28;20415;-81
2023/12/27 07:07:37;;;;;;;27.25;4.70;;;6.60;99.90;;;;;;5057345;28;20192;-81
2023/12/27 07:10:04;;;;;;;26.30;4.73;;;6.60;99.90;;;;;;5039294;28;20169;-81
2023/12/27 07:12:30;;;;;;;26.48;4.85;;;6.60;99.90;;;;;;5057001;28;20499;-81
2023/12/27 07:14:57;;;;;;;27.75;5.13;;;6.60;99.90;;;;;;5057173;28;20181;-81
2023/12/27 07:17:23;;;;;;;27.95;5.13;;;6.70;99.90;;;;;;5057261;28;20168;-81
2023/12/27 07:19:49;;;;;;;26.35;4.22;;;6.70;99.90;;;;;;5056852;28;20189;-81
2023/12/27 07:22:15;;;;;;;24.47;4.33;;;6.80;99.90;;;;;;5056488;28;20169;-81
2023/12/27 07:24:40;;;;;;;26.50;3.67;;;6.80;99.90;;;;;;5039184;28;20662;-81
2023/12/27 07:27:07;;;;;;;28.37;4.00;;;6.80;99.90;;;;;;5038913;28;20617;-81
2023/12/27 07:29:36;;;;;;;26.75;4.35;;;6.90;99.90;;;;;;5038893;28;20638;-81
2023/12/27 07:32:05;;;;;;;25.75;3.50;;;6.90;99.90;;;;;;5057060;28;20161;-81
2023/12/27 07:34:32;;;;;;;24.48;3.95;;;6.90;99.90;;;;;;5061104;28;20244;-81
2023/12/27 07:36:58;;;;;;;26.13;3.92;;;6.90;99.90;;;;;;5061376;28;20172;-81
2023/12/27 07:39:23;;;;;;;32.23;3.53;;;6.90;99.90;;;;;;5061427;28;20193;-81
2023/12/27 07:41:49;;;;;;;26.73;3.50;;;6.90;99.90;;;;;;5043216;28;20161;-81
2023/12/27 07:44:16;;;;;;;25.20;4.50;;;7.00;99.90;;;;;;5042478;28;20170;-81
2023/12/27 07:46:45;;;;;;;25.20;3.58;;;7.00;99.90;;;;;;5042989;28;20165;-81
2023/12/27 07:49:10;;;;;;;25.75;3.60;;;7.00;99.90;;;;;;5042882;28;20168;-81
2023/12/27 07:51:36;;;;;;;31.03;4.97;;;7.10;99.90;;;;;;5043030;28;20276;-81
2023/12/27 07:54:02;;;;;;;28.40;3.70;;;7.10;99.90;;;;;;5043223;28;20226;-81
2023/12/27 07:56:28;;;;;;;27.60;4.53;;;7.10;99.90;;;;;;5042426;28;20169;-81
2023/12/27 07:58:54;;;;;;;25.30;3.70;;;7.10;99.90;;;;;;5042126;28;20566;-81
2023/12/27 08:01:20;;;;;;;25.40;3.73;;;7.10;99.90;;;;;;5059940;28;20168;-81
2023/12/27 08:03:46;;;;;;;29.63;4.10;;;7.10;99.90;;;;;;5059778;28;20248;-81
2023/12/27 08:06:12;;;;;;;25.27;3.90;;;7.10;99.90;;;;;;5060075;28;20224;-80
2023/12/27 08:08:38;;;;;;;34.63;4.38;;;7.20;99.90;;;;;;5059895;28;20172;-80
2023/12/27 08:11:03;;;;;;;26.40;4.10;;;7.20;99.90;;;;;;5059849;28;20646;-80
2023/12/27 08:13:31;;;;;;;26.67;3.93;;;7.20;99.90;;;;;;5060103;28;20912;-81
2023/12/27 08:15:57;;;;;;;25.63;3.58;;;7.20;99.90;;;;;;5041966;28;20545;-81
2023/12/27 08:18:23;;;;;;;29.70;4.20;;;7.20;99.90;;;;;;5041638;28;20258;-80
2023/12/27 08:20:48;;;;;;;24.27;3.77;;;7.30;99.90;;;;;;5059762;28;20400;-81
2023/12/27 08:23:16;;;;;;;23.97;3.30;;;7.30;99.90;;;;;;5059963;28;20189;-81
2023/12/27 08:25:43;;;;;;;24.33;3.08;;;7.30;99.90;;;;;;5059587;28;20178;-80
2023/12/27 08:28:14;;;;;;;23.67;2.95;;;7.40;99.90;;;;;;5043461;28;20204;-79
2023/12/27 08:30:40;;;;;;;26.70;3.30;;;7.40;99.90;;;;;;5065748;28;20148;-80
2023/12/27 08:33:15;;;;;;;23.90;3.17;;;7.40;99.90;;;;;;5061207;28;20736;-81
2023/12/27 08:35:41;;;;;;;21.75;2.95;;;7.50;99.90;;;;;;5041932;28;20219;-81
2023/12/27 08:38:08;;;;;;;24.00;3.50;;;7.50;99.90;;;;;;5060007;28;20169;-81
2023/12/27 08:40:34;;;;;;;24.30;4.20;;;7.50;99.90;;;;;;5041891;28;20165;-81
2023/12/27 08:43:00;;;;;;;25.30;3.30;;;7.60;99.90;;;;;;5059564;28;20245;-81
2023/12/27 08:45:26;;;;;;;24.33;3.00;;;7.60;99.90;;;;;;5058312;28;20238;-81
2023/12/27 08:47:52;;;;;;;24.00;3.33;;;7.60;99.90;;;;;;5059939;28;20157;-81
2023/12/27 08:50:17;;;;;;;25.63;3.00;;;7.60;99.90;;;;;;5059912;28;20541;-81
2023/12/27 08:52:43;;;;;;;26.07;3.20;;;7.60;99.90;;;;;;5059239;28;21018;-81
2023/12/27 08:55:10;;;;;;;26.27;3.88;;;7.60;99.90;;;;;;5059702;28;20181;-81
2023/12/27 08:57:40;;;;;;;22.60;3.45;;;7.70;99.90;;;;;;5059206;28;20219;-81
2023/12/27 09:00:10;;;;;;;23.30;2.95;;;7.70;99.90;;;;;;5041153;28;20276;-81
2023/12/27 09:02:48;;;;;;;27.08;4.18;;;7.80;99.90;;;;;;5059280;28;20146;-81
2023/12/27 09:05:13;;;;;;;22.15;2.97;;;7.80;99.90;;;;;;5059910;28;20187;-81
2023/12/27 09:07:39;;;;;;;23.43;3.67;;;7.90;99.90;;;;;;5059897;28;20158;-81
2023/12/27 09:10:05;;;;;;;24.80;3.20;;;7.90;99.90;;;;;;5059741;28;20527;-81
2023/12/27 09:12:31;;;;;;;20.97;2.67;;;8.00;99.90;;;;;;5059767;28;20161;-81
2023/12/27 09:14:57;;;;;;;22.20;2.90;;;8.00;99.90;;;;;;5041881;28;20781;-81
2023/12/27 09:17:26;;;;;;;21.10;2.87;;;8.00;99.90;;;;;;5059367;28;20407;-81
2023/12/27 09:19:51;;;;;;;22.80;3.10;;;8.10;99.90;;;;;;5059221;28;20474;-81
2023/12/27 09:22:17;;;;;;;24.13;3.00;;;8.10;99.90;;;;;;5059306;28;20161;-81
2023/12/27 09:24:43;;;;;;;26.90;3.80;;;8.10;99.90;;;;;;5058626;28;20192;-81
2023/12/27 09:27:12;;;;;;;25.77;2.83;;;8.20;99.90;;;;;;5058552;28;20158;-80
2023/12/27 09:29:37;;;;;;;24.70;2.75;;;8.20;99.90;;;;;;5058786;28;20157;-81
2023/12/27 09:32:05;;;;;;;20.93;2.87;;;8.20;99.90;;;;;;5058540;28;20177;-81
2023/12/27 09:34:30;;;;;;;20.75;2.50;;;8.30;99.90;;;;;;5059117;28;20181;-81
2023/12/27 09:36:56;;;;;;;21.30;2.47;;;8.30;99.90;;;;;;5058401;28;20192;-81
2023/12/27 09:39:28;;;;;;;22.00;2.97;;;8.30;99.90;;;;;;5058490;28;20433;-81
2023/12/27 09:41:53;;;;;;;22.83;3.33;;;8.40;99.90;;;;;;5040583;28;20658;-80
2023/12/27 09:44:26;;;;;;;21.80;3.10;;;8.40;99.90;;;;;;5040657;28;20196;-81
2023/12/27 09:46:52;;;;;;;21.85;2.80;;;8.40;99.90;;;;;;5058453;28;20203;-81
2023/12/27 09:49:20;;;;;;;22.83;2.90;;;8.40;99.90;;;;;;5058585;28;20165;-81
2023/12/27 09:51:49;;;;;;;27.15;3.08;;;8.50;99.90;;;;;;5040424;28;20185;-81
2023/12/27 09:54:17;;;;;;;22.83;2.90;;;8.50;99.90;;;;;;5058665;28;20244;-81
2023/12/27 09:56:44;;;;;;;27.98;3.00;;;8.60;99.90;;;;;;5058778;28;20188;-81
2023/12/27 09:59:15;;;;;;;20.55;2.90;;;8.60;99.90;;;;;;5040750;28;20264;-81
2023/12/27 10:01:50;;;;;;;21.52;2.90;;;8.60;99.90;;;;;;5040921;28;20154;-81
2023/12/27 10:04:15;;;;;;;23.42;2.60;;;8.60;99.90;;;;;;5058152;28;20153;-81
2023/12/27 10:06:44;;;;;;;22.70;2.43;;;8.70;99.90;;;;;;5059817;28;20177;-81
2023/12/27 10:09:13;;;;;;;20.55;2.38;;;8.70;99.90;;;;;;5059628;28;20165;-81
2023/12/27 10:11:41;;;;;;;24.45;2.67;;;8.70;99.90;;;;;;5058611;28;20165;-81
2023/12/27 10:14:11;;;;;;;20.85;2.92;;;8.70;99.90;;;;;;5058280;28;20165;-81
2023/12/27 10:16:37;;;;;;;20.50;2.45;;;8.70;99.90;;;;;;5039907;28;20573;-81
2023/12/27 10:19:07;;;;;;;20.47;2.57;;;8.80;99.90;;;;;;5039686;28;20281;-81
2023/12/27 10:21:43;;;;;;;23.27;3.08;;;8.80;99.90;;;;;;5058296;28;20380;-81
2023/12/27 10:24:12;;;;;;;21.65;2.85;;;8.80;99.90;;;;;;5058716;28;20514;-81
2023/12/27 10:26:38;;;;;;;23.00;2.60;;;8.80;99.90;;;;;;5041003;28;20634;-81
2023/12/27 10:29:05;;;;;;;21.40;3.05;;;8.80;99.90;;;;;;5040130;28;20550;-81
2023/12/27 10:31:31;;;;;;;21.55;3.35;;;8.80;99.90;;;;;;5057786;28;20157;-81
2023/12/27 10:34:02;;;;;;;21.17;2.73;;;8.80;99.90;;;;;;5057964;28;20173;-81
2023/12/27 10:36:29;;;;;;;21.52;2.85;;;8.80;99.90;;;;;;5040014;28;20219;-80
2023/12/27 10:38:56;;;;;;;21.63;2.85;;;8.80;99.90;;;;;;5057571;28;20192;-81
2023/12/27 10:41:23;;;;;;;24.33;3.00;;;8.80;99.90;;;;;;5057318;28;20154;-81
2023/12/27 10:43:50;;;;;;;26.45;3.25;;;8.80;99.90;;;;;;5057595;28;20158;-81
2023/12/27 10:46:17;;;;;;;21.58;3.05;;;8.80;99.90;;;;;;5039092;28;20185;-81
2023/12/27 10:48:47;;;;;;;21.10;2.70;;;8.90;99.90;;;;;;5057238;28;20168;-81
2023/12/27 10:51:14;;;;;;;21.25;3.00;;;8.90;99.90;;;;;;5039667;28;20184;-81
2023/12/27 10:53:46;;;;;;;21.67;2.55;;;9.00;99.90;;;;;;5039224;28;20196;-81
2023/12/27 10:56:14;;;;;;;20.48;3.15;;;9.00;99.90;;;;;;5057863;28;20593;-81
2023/12/27 10:58:45;;;;;;;22.30;2.75;;;9.10;99.90;;;;;;5057664;28;20205;-81
2023/12/27 11:01:12;;;;;;;19.05;1.90;;;9.10;99.90;;;;;;5038958;28;20163;-81
2023/12/27 11:03:38;;;;;;;19.20;1.80;;;9.20;99.90;;;;;;5057295;28;20588;-81
2023/12/27 11:06:05;;;;;;;19.75;2.42;;;9.20;99.90;;;;;;5057095;28;20658;-81
2023/12/27 11:08:34;;;;;;;24.92;2.17;;;9.30;99.90;;;;;;5056680;28;20157;-80
2023/12/27 11:11:03;;;;;;;21.92;1.95;;;9.40;99.90;;;;;;5056367;28;20245;-81
2023/12/27 11:13:32;;;;;;;18.33;1.42;;;9.40;99.90;;;;;;5056996;28;20193;-81
2023/12/27 11:16:00;;;;;;;19.90;1.60;;;9.40;99.90;;;;;;5038861;28;20197;-80
2023/12/27 11:18:30;;;;;;;19.30;1.60;;;9.50;99.90;;;;;;5056360;28;20214;-81
2023/12/27 11:20:56;;;;;;;18.83;1.70;;;9.50;99.90;;;;;;5037961;28;20158;-81
2023/12/27 11:23:23;;;;;;;17.90;1.30;;;9.60;99.90;;;;;;5056737;28;20232;-81
2023/12/27 11:25:59;;;;;;;18.65;1.70;;;9.70;99.90;;;;;;5056696;28;20224;-81
2023/12/27 11:28:25;;;;;;;18.65;1.67;;;9.70;99.90;;;;;;5039326;28;20275;-81
2023/12/27 11:31:01;;;;;;;17.80;1.30;;;9.70;99.90;;;;;;5038644;28;20166;-80
2023/12/27 11:33:27;;;;;;;18.33;1.38;;;9.80;99.90;;;;;;5039420;28;20399;-81
2023/12/27 11:35:53;;;;;;;17.40;1.03;;;9.80;99.90;;;;;;5056699;28;20181;-81
2023/12/27 11:38:21;;;;;;;17.60;1.30;;;9.80;99.90;;;;;;5038512;28;20195;-81
2023/12/27 11:40:50;;;;;;;18.38;1.40;;;9.80;99.90;;;;;;5038862;28;20169;-81
2023/12/27 11:43:20;;;;;;;21.55;2.20;;;9.90;99.90;;;;;;5057174;28;20204;-81
2023/12/27 11:45:59;;;;;;;17.85;1.40;;;10.00;99.90;;;;;;5058210;28;20542;-81
2023/12/27 11:48:27;;;;;;;19.02;1.60;;;10.00;99.90;;;;;;5057124;28;20211;-81
2023/12/27 11:50:55;;;;;;;16.95;1.27;;;10.00;99.90;;;;;;5039016;28;20169;-81
2023/12/27 11:53:24;;;;;;;17.10;1.30;;;10.00;99.90;;;;;;5057164;28;20154;-81
2023/12/27 11:55:51;;;;;;;17.80;1.90;;;10.00;99.90;;;;;;5038674;28;20209;-81
2023/12/27 11:58:38;;;;;;;18.70;1.63;;;10.10;99.90;;;;;;5038482;28;20170;-81
2023/12/27 12:01:35;;;;;;;16.55;0.98;;;10.10;99.90;;;;;;5056250;28;20149;-81
2023/12/27 12:04:23;;;;;;;18.58;1.10;;;10.10;99.90;;;;;;5040814;28;20186;-81
2023/12/27 12:06:54;;;;;;;16.85;1.20;;;10.10;99.90;;;;;;5057753;28;20209;-81
2023/12/27 12:09:37;;;;;;;17.65;1.33;;;10.10;99.90;;;;;;5056582;28;20169;-81
2023/12/27 12:12:11;;;;;;;16.85;1.35;;;10.20;99.90;;;;;;5056420;28;20240;-81
2023/12/27 12:14:39;;;;;;;18.70;2.28;;;10.10;99.90;;;;;;5038593;28;20196;-81
2023/12/27 12:17:08;;;;;;;17.38;1.10;;;10.10;99.90;;;;;;5038600;28;20179;-81
2023/12/27 12:19:37;;;;;;;17.02;1.25;;;10.20;99.90;;;;;;5041079;28;20199;-81
2023/12/27 12:22:04;;;;;;;17.15;1.20;;;10.20;99.90;;;;;;5060076;28;20211;-81
2023/12/27 12:24:30;;;;;;;21.20;1.50;;;10.20;99.90;;;;;;5060201;28;20185;-81
2023/12/27 12:26:59;;;;;;;17.27;1.40;;;10.20;99.90;;;;;;5059985;28;20193;-81
2023/12/27 12:29:26;;;;;;;16.80;1.20;;;10.30;99.90;;;;;;5059931;28;20418;-81
2023/12/27 12:31:55;;;;;;;16.30;0.93;;;10.40;99.90;;;;;;5060187;28;20538;-81
2023/12/27 12:34:27;;;;;;;16.30;0.90;;;10.50;99.90;;;;;;5059838;28;20666;-81
2023/12/27 12:36:53;;;;;;;17.40;1.10;;;10.50;99.90;;;;;;5059822;28;20602;-81
2023/12/27 12:39:28;;;;;;;17.70;1.43;;;10.50;99.90;;;;;;5059635;28;20192;-81
2023/12/27 12:41:54;;;;;;;17.40;1.35;;;10.70;99.90;;;;;;5059763;28;20392;-80
2023/12/27 12:44:20;;;;;;;17.40;1.23;;;10.70;99.90;;;;;;5059420;28;20188;-81